Time;durP1;ratioP1;P1;durP2;ratioP2;P2;SDS_P1;SDS_P2;PMS_P1;PMS_P2;Temp;Humidity;BMP_temperature;BMP_pressure;BME280_temperature;BME280_humidity;BME280_pressure;Samples;Min_cycle;Max_cycle;Signal;HPM_P1;HPM_P2
2023/03/31 00:00:56;;;;;;;35.10;5.45;;;9.20;99.90;;;;;;5053680;28;20577;-21
2023/03/31 00:03:23;;;;;;;35.83;5.88;;;9.20;99.90;;;;;;5035875;28;20049;-21
2023/03/31 00:05:57;;;;;;;35.60;5.68;;;9.20;99.90;;;;;;5053654;28;20049;-21
2023/03/31 00:08:23;;;;;;;47.88;5.95;;;9.30;99.90;;;;;;5052338;28;20067;-21
2023/03/31 00:10:49;;;;;;;38.10;5.03;;;9.40;99.90;;;;;;5053861;28;20146;-21
2023/03/31 00:13:16;;;;;;;34.90;5.55;;;9.40;99.90;;;;;;5053263;28;20057;-21
2023/03/31 00:15:42;;;;;;;44.25;6.68;;;9.50;99.90;;;;;;5053468;28;20056;-21
2023/03/31 00:18:07;;;;;;;39.88;7.13;;;9.50;99.90;;;;;;5053520;28;20208;-21
2023/03/31 00:20:36;;;;;;;28.02;5.85;;;9.60;99.90;;;;;;5053580;28;20136;-21
2023/03/31 00:23:09;;;;;;;41.45;6.32;;;9.70;99.90;;;;;;5053487;28;20057;-21
2023/03/31 00:25:38;;;;;;;41.88;6.43;;;9.70;99.90;;;;;;5054108;28;20049;-21
2023/03/31 00:28:04;;;;;;;47.13;7.15;;;9.70;99.90;;;;;;5053432;28;20145;-21
2023/03/31 00:30:30;;;;;;;32.50;5.95;;;9.60;99.90;;;;;;5053335;28;20051;-21
2023/03/31 00:32:56;;;;;;;30.88;6.05;;;9.50;99.90;;;;;;5053672;28;20079;-21
2023/03/31 00:35:22;;;;;;;39.13;6.88;;;9.50;99.90;;;;;;5053362;28;20057;-21
2023/03/31 00:37:47;;;;;;;36.00;5.95;;;9.50;99.90;;;;;;5052182;28;20049;-21
2023/03/31 00:40:13;;;;;;;34.50;5.45;;;9.40;99.90;;;;;;5052969;28;20119;-21
2023/03/31 00:42:40;;;;;;;29.35;5.95;;;9.30;99.90;;;;;;5053837;28;20045;-21
2023/03/31 00:45:15;;;;;;;47.75;7.55;;;9.30;99.90;;;;;;5053899;28;20099;-21
2023/03/31 00:48:14;;;;;;;43.95;5.90;;;9.30;99.90;;;;;;5053297;28;20057;-21
2023/03/31 00:50:53;;;;;;;37.08;5.68;;;9.20;99.90;;;;;;5051622;28;20057;-21
2023/03/31 00:53:23;;;;;;;38.83;6.65;;;9.10;99.90;;;;;;5053530;28;20131;-21
2023/03/31 00:55:52;;;;;;;30.80;5.28;;;9.10;99.90;;;;;;5053219;28;20049;-21
2023/03/31 00:58:19;;;;;;;39.95;6.10;;;9.10;99.90;;;;;;5053120;28;20060;-21
2023/03/31 01:00:51;;;;;;;35.55;7.13;;;9.00;99.90;;;;;;5053428;28;20053;-21
2023/03/31 01:03:21;;;;;;;36.20;5.20;;;8.90;99.90;;;;;;5053190;28;20067;-21
2023/03/31 01:06:18;;;;;;;44.20;6.57;;;8.90;99.90;;;;;;5052359;28;20044;-21
2023/03/31 01:08:48;;;;;;;43.75;6.18;;;8.80;99.90;;;;;;5052119;28;20150;-21
2023/03/31 01:11:19;;;;;;;42.38;7.43;;;8.80;99.90;;;;;;5053481;28;20071;-21
2023/03/31 01:13:49;;;;;;;53.92;8.00;;;8.70;99.90;;;;;;5035965;28;20518;-21
2023/03/31 01:16:15;;;;;;;32.35;5.72;;;8.60;99.90;;;;;;5052137;28;20060;-21
2023/03/31 01:18:45;;;;;;;39.22;5.40;;;8.60;99.90;;;;;;5052957;28;20119;-21
2023/03/31 01:21:48;;;;;;;38.53;6.55;;;8.70;99.90;;;;;;5053504;28;20483;-21
2023/03/31 01:24:46;;;;;;;47.38;6.13;;;8.70;99.90;;;;;;5052944;28;20049;-21
2023/03/31 01:27:36;;;;;;;38.20;5.32;;;8.70;99.90;;;;;;5051902;28;20103;-21
2023/03/31 01:30:33;;;;;;;40.50;5.68;;;8.60;99.90;;;;;;5053134;28;20394;-21
2023/03/31 01:33:11;;;;;;;36.47;5.43;;;8.60;99.90;;;;;;5054880;28;20057;-21
2023/03/31 01:35:42;;;;;;;34.75;5.13;;;8.60;99.90;;;;;;5056380;28;20045;-21
2023/03/31 01:38:48;;;;;;;42.15;5.20;;;8.60;99.90;;;;;;5056280;28;20048;-21
2023/03/31 01:41:32;;;;;;;31.48;5.15;;;8.60;99.90;;;;;;5056337;28;20041;-21
2023/03/31 01:44:26;;;;;;;36.33;5.82;;;8.60;99.90;;;;;;5056243;28;20057;-21
2023/03/31 01:47:05;;;;;;;27.13;4.43;;;8.60;99.90;;;;;;5056537;28;20087;-21
2023/03/31 01:49:40;;;;;;;36.22;5.32;;;8.60;99.90;;;;;;5056725;28;20521;-21
2023/03/31 01:52:16;;;;;;;34.95;5.47;;;8.60;99.90;;;;;;5056706;28;20403;-21
2023/03/31 01:55:10;;;;;;;35.83;5.22;;;8.50;99.90;;;;;;5056095;28;20048;-21
2023/03/31 01:57:40;;;;;;;23.17;4.28;;;8.50;99.90;;;;;;5053827;28;20136;-21
2023/03/31 02:00:10;;;;;;;35.75;5.47;;;8.50;99.90;;;;;;5056550;28;20056;-21
2023/03/31 02:02:39;;;;;;;27.63;5.38;;;8.50;99.90;;;;;;5056690;28;20072;-21
2023/03/31 02:05:17;;;;;;;36.85;6.78;;;8.50;99.90;;;;;;5055841;28;20049;-21
2023/03/31 02:08:03;;;;;;;36.83;5.90;;;8.50;99.90;;;;;;5055839;28;20049;-21
2023/03/31 02:10:31;;;;;;;24.73;4.85;;;8.60;99.90;;;;;;5055464;28;20065;-21
2023/03/31 02:13:00;;;;;;;27.98;4.38;;;8.50;99.90;;;;;;5056538;28;20122;-21
2023/03/31 02:15:33;;;;;;;29.98;5.20;;;8.60;99.90;;;;;;5055550;28;20506;-21
2023/03/31 02:18:04;;;;;;;34.15;4.75;;;8.50;99.90;;;;;;5056239;28;20395;-21
2023/03/31 02:20:32;;;;;;;24.45;3.85;;;8.60;99.90;;;;;;5055620;28;20045;-21
2023/03/31 02:22:59;;;;;;;25.88;4.75;;;8.60;99.90;;;;;;5055237;28;20403;-21
2023/03/31 02:25:34;;;;;;;24.60;3.92;;;8.70;99.90;;;;;;5055467;28;20132;-21
2023/03/31 02:28:07;;;;;;;25.23;4.55;;;8.70;99.90;;;;;;5054504;28;20060;-21
2023/03/31 02:31:07;;;;;;;24.87;4.20;;;8.70;99.90;;;;;;5055663;28;20066;-21
2023/03/31 02:33:33;;;;;;;21.98;4.03;;;8.80;99.90;;;;;;5055904;28;20287;-21
2023/03/31 02:35:59;;;;;;;21.40;3.50;;;8.80;99.90;;;;;;5055294;28;20389;-21
2023/03/31 02:38:26;;;;;;;28.48;4.82;;;8.90;99.90;;;;;;5055262;28;20057;-21
2023/03/31 02:40:52;;;;;;;26.15;4.13;;;8.90;99.90;;;;;;5055283;28;20556;-21
2023/03/31 02:43:18;;;;;;;25.77;4.00;;;9.00;99.90;;;;;;5055302;28;20052;-21
2023/03/31 02:45:45;;;;;;;22.45;4.03;;;9.00;99.90;;;;;;5054227;28;20383;-21
2023/03/31 02:48:16;;;;;;;26.85;4.38;;;9.10;99.90;;;;;;5055267;28;20430;-21
2023/03/31 02:51:31;;;;;;;29.00;4.30;;;9.20;99.90;;;;;;5055532;28;20044;-21
2023/03/31 02:54:07;;;;;;;;;;;9.10;99.90;;;;;;5053282;28;20053;-21
2023/03/31 02:57:07;;;;;;;28.95;5.00;;;9.20;99.90;;;;;;5055173;28;20378;-21
2023/03/31 02:59:38;;;;;;;32.35;5.45;;;9.20;99.90;;;;;;5055692;28;20049;-21
2023/03/31 03:02:41;;;;;;;28.10;4.15;;;9.20;99.90;;;;;;5053589;28;20049;-21
2023/03/31 03:05:19;;;;;;;30.48;5.38;;;9.10;99.90;;;;;;5054643;28;20088;-21
2023/03/31 03:07:53;;;;;;;29.38;4.13;;;9.10;99.90;;;;;;5054701;28;20056;-21
2023/03/31 03:10:36;;;;;;;21.05;3.92;;;9.10;99.90;;;;;;5053009;28;20423;-21
2023/03/31 03:13:27;;;;;;;22.60;5.15;;;9.10;99.90;;;;;;5054510;28;20063;-21
2023/03/31 03:16:31;;;;;;;28.08;4.28;;;9.00;99.90;;;;;;5054703;28;20037;-21
2023/03/31 03:19:03;;;;;;;29.92;4.47;;;9.00;99.90;;;;;;5049478;28;20060;-21
2023/03/31 03:21:30;;;;;;;25.85;5.82;;;8.90;99.90;;;;;;5054418;28;20044;-21
2023/03/31 03:23:56;;;;;;;28.00;5.20;;;8.80;99.90;;;;;;5054354;28;20127;-21
2023/03/31 03:26:22;;;;;;;30.00;4.88;;;8.90;99.90;;;;;;5054311;28;20045;-21
2023/03/31 03:28:49;;;;;;;31.42;4.88;;;8.80;99.90;;;;;;5054228;28;20127;-21
2023/03/31 03:31:16;;;;;;;27.52;5.20;;;8.90;99.90;;;;;;5054803;28;20136;-21
2023/03/31 03:33:42;;;;;;;23.20;4.25;;;8.90;99.90;;;;;;5053013;28;20132;-21
2023/03/31 03:36:08;;;;;;;22.38;4.22;;;8.90;99.90;;;;;;5054129;28;20076;-21
2023/03/31 03:38:35;;;;;;;28.27;4.30;;;8.90;99.90;;;;;;5052990;28;20056;-21
2023/03/31 03:41:01;;;;;;;25.83;4.55;;;9.00;99.90;;;;;;5054072;28;20123;-21
2023/03/31 03:43:27;;;;;;;26.23;3.90;;;9.00;99.90;;;;;;5053716;28;20487;-22
2023/03/31 03:45:54;;;;;;;24.73;4.20;;;9.00;99.90;;;;;;5054210;28;20128;-21
2023/03/31 03:48:20;;;;;;;22.25;3.97;;;9.00;99.90;;;;;;5054768;28;20130;-21
2023/03/31 03:50:46;;;;;;;21.48;4.28;;;8.90;99.90;;;;;;5053431;28;20124;-21
2023/03/31 03:53:13;;;;;;;24.20;3.80;;;9.00;99.90;;;;;;5054388;28;20053;-21
2023/03/31 03:55:39;;;;;;;24.05;4.15;;;9.00;99.90;;;;;;5052403;28;20430;-21
2023/03/31 03:58:06;;;;;;;23.83;4.03;;;9.00;99.90;;;;;;5054055;28;20097;-21
2023/03/31 04:00:31;;;;;;;20.40;3.95;;;9.00;99.90;;;;;;5054001;28;20041;-21
2023/03/31 04:02:57;;;;;;;22.08;3.47;;;9.10;99.90;;;;;;5052526;28;20510;-21
2023/03/31 04:05:23;;;;;;;22.67;4.22;;;9.10;99.90;;;;;;5053682;28;20037;-21
2023/03/31 04:07:49;;;;;;;23.92;3.17;;;9.20;99.90;;;;;;5053741;28;20103;-21
2023/03/31 04:10:15;;;;;;;24.08;3.60;;;9.30;99.90;;;;;;5053325;28;20075;-21
2023/03/31 04:12:41;;;;;;;18.98;3.42;;;9.30;99.90;;;;;;5053592;28;20403;-21
2023/03/31 04:15:07;;;;;;;14.32;2.95;;;9.40;99.90;;;;;;5053552;28;20045;-20
2023/03/31 04:17:33;;;;;;;19.30;3.38;;;9.40;99.90;;;;;;5053780;28;20045;-20
2023/03/31 04:20:06;;;;;;;11.55;2.80;;;9.40;99.90;;;;;;5053567;28;20041;-20
2023/03/31 04:22:34;;;;;;;18.30;3.05;;;9.20;99.90;;;;;;5053668;28;20470;-19
2023/03/31 04:25:16;;;;;;;16.45;3.97;;;9.20;99.90;;;;;;5053773;28;20076;-19
2023/03/31 04:27:49;;;;;;;15.93;3.72;;;9.10;99.90;;;;;;5037100;28;20167;-19
2023/03/31 04:30:29;;;;;;;14.57;3.80;;;9.20;99.90;;;;;;5053752;28;20050;-19
2023/03/31 04:32:58;;;;;;;16.95;4.68;;;9.20;99.90;;;;;;5053479;28;20059;-19
2023/03/31 04:35:26;;;;;;;15.88;4.20;;;9.20;99.90;;;;;;5053398;28;20055;-19
2023/03/31 04:37:59;;;;;;;23.65;6.50;;;9.10;99.90;;;;;;5053385;28;20045;-18
2023/03/31 04:40:25;;;;;;;13.00;4.65;;;9.20;99.90;;;;;;5053716;28;20045;-19
2023/03/31 04:42:51;;;;;;;19.50;6.03;;;9.30;99.90;;;;;;5053348;28;20574;-19
2023/03/31 04:45:17;;;;;;;15.82;5.00;;;9.10;99.90;;;;;;5052467;28;20048;-19
2023/03/31 04:47:43;;;;;;;18.17;6.75;;;9.40;99.90;;;;;;5053529;28;20047;-19
2023/03/31 04:50:09;;;;;;;15.63;5.75;;;9.40;99.90;;;;;;5052294;28;20449;-20
2023/03/31 04:52:36;;;;;;;23.95;6.30;;;9.20;99.90;;;;;;5052221;28;20506;-20
2023/03/31 04:55:03;;;;;;;22.42;6.13;;;9.10;99.90;;;;;;5053171;28;20045;-20
2023/03/31 04:57:28;;;;;;;19.30;5.97;;;9.40;99.90;;;;;;5035625;28;20049;-20
2023/03/31 04:59:54;;;;;;;18.63;6.25;;;9.30;99.90;;;;;;5053418;28;20063;-20
2023/03/31 05:02:22;;;;;;;20.48;7.13;;;9.30;99.90;;;;;;5053675;28;20099;-21
2023/03/31 05:04:49;;;;;;;30.63;7.82;;;9.10;99.90;;;;;;5053156;28;20053;-21
2023/03/31 05:07:16;;;;;;;23.25;8.05;;;9.30;99.90;;;;;;5053477;28;20080;-22
2023/03/31 05:09:42;;;;;;;20.13;8.68;;;9.40;99.90;;;;;;5056787;28;20064;-21
2023/03/31 05:12:08;;;;;;;26.05;8.88;;;9.00;99.90;;;;;;5057450;28;20132;-21
2023/03/31 05:14:34;;;;;;;26.40;8.25;;;9.50;99.90;;;;;;5055851;28;20072;-22
2023/03/31 05:16:59;;;;;;;23.90;8.93;;;9.00;99.90;;;;;;5055588;28;20186;-22
2023/03/31 05:19:25;;;;;;;30.08;9.98;;;9.20;99.90;;;;;;5056690;28;20486;-21
2023/03/31 05:21:51;;;;;;;21.80;9.13;;;9.40;99.90;;;;;;5055458;28;20045;-22
2023/03/31 05:24:17;;;;;;;28.55;9.30;;;9.20;99.90;;;;;;5055116;28;20195;-21
2023/03/31 05:26:51;;;;;;;28.05;10.10;;;9.00;99.90;;;;;;5055393;28;20051;-22
2023/03/31 05:29:17;;;;;;;30.85;10.88;;;9.40;99.90;;;;;;5056473;28;20048;-22
2023/03/31 05:31:44;;;;;;;31.27;11.00;;;9.40;99.90;;;;;;5056481;28;20132;-22
2023/03/31 05:34:10;;;;;;;24.27;9.88;;;9.20;99.90;;;;;;5055491;28;20120;-22
2023/03/31 05:36:36;;;;;;;26.38;10.32;;;9.40;99.90;;;;;;5055223;28;20127;-22
2023/03/31 05:39:03;;;;;;;25.83;10.20;;;9.10;99.90;;;;;;5039071;28;20057;-22
2023/03/31 05:41:29;;;;;;;31.83;10.75;;;9.60;99.90;;;;;;5057122;28;20098;-22
2023/03/31 05:43:55;;;;;;;28.02;9.77;;;9.60;99.90;;;;;;5056656;28;20053;-22
2023/03/31 05:46:21;;;;;;;26.55;9.95;;;9.10;99.90;;;;;;5054728;28;20118;-22
2023/03/31 05:48:47;;;;;;;28.52;10.73;;;9.50;99.90;;;;;;5056270;28;20055;-22
2023/03/31 05:51:13;;;;;;;29.77;10.13;;;9.20;99.90;;;;;;5056038;28;20044;-22
2023/03/31 05:53:39;;;;;;;28.60;10.00;;;9.30;99.90;;;;;;5056112;28;20107;-22
2023/03/31 05:56:08;;;;;;;31.25;10.30;;;9.10;99.90;;;;;;5056038;28;20127;-22
2023/03/31 05:58:35;;;;;;;22.67;9.85;;;9.40;99.90;;;;;;5055947;28;20053;-22
2023/03/31 06:01:12;;;;;;;33.15;11.18;;;9.40;99.90;;;;;;5055992;28;20056;-22
2023/03/31 06:03:40;;;;;;;26.38;9.90;;;9.20;99.90;;;;;;5055315;28;20124;-22
2023/03/31 06:06:07;;;;;;;26.20;9.20;;;9.10;99.90;;;;;;5055845;28;20055;-22
2023/03/31 06:08:34;;;;;;;27.20;10.50;;;9.70;99.90;;;;;;5021736;28;20057;-22
2023/03/31 06:11:07;;;;;;;28.23;9.43;;;9.20;99.90;;;;;;5055276;28;20110;-22
2023/03/31 06:13:36;;;;;;;23.90;9.90;;;9.50;99.90;;;;;;5055749;28;20045;-22
2023/03/31 06:16:02;;;;;;;21.23;8.93;;;9.60;99.90;;;;;;5055585;28;20081;-22
2023/03/31 06:18:30;;;;;;;23.13;7.78;;;9.80;99.90;;;;;;5055194;28;20087;-22
2023/03/31 06:20:56;;;;;;;19.23;7.32;;;9.80;99.90;;;;;;5055598;28;20053;-23
2023/03/31 06:23:23;;;;;;;14.82;7.05;;;9.50;99.90;;;;;;5055525;28;20043;-22
2023/03/31 06:25:49;;;;;;;20.73;7.13;;;9.30;99.90;;;;;;5056078;28;20114;-23
2023/03/31 06:28:15;;;;;;;23.58;7.35;;;9.30;99.90;;;;;;5055457;28;20052;-23
2023/03/31 06:30:41;;;;;;;18.40;6.55;;;9.80;99.90;;;;;;5055312;28;20128;-23
2023/03/31 06:33:07;;;;;;;14.80;5.80;;;9.70;99.90;;;;;;5055857;28;20183;-22
2023/03/31 06:35:36;;;;;;;18.35;7.28;;;9.80;99.90;;;;;;5055328;28;20380;-23
2023/03/31 06:38:01;;;;;;;23.40;6.82;;;9.60;99.90;;;;;;5056130;28;20104;-23
2023/03/31 06:40:27;;;;;;;17.13;6.65;;;9.20;99.90;;;;;;5055205;28;20547;-22
2023/03/31 06:42:53;;;;;;;19.90;7.78;;;9.30;99.90;;;;;;5054050;28;20080;-22
2023/03/31 06:45:19;;;;;;;22.50;7.75;;;9.60;99.90;;;;;;5055408;28;20045;-23
2023/03/31 06:47:45;;;;;;;21.77;7.75;;;9.30;99.90;;;;;;5055030;28;20048;-23
2023/03/31 06:50:10;;;;;;;17.55;7.40;;;9.40;99.90;;;;;;5054924;28;20378;-23
2023/03/31 06:52:36;;;;;;;21.25;7.80;;;9.90;99.90;;;;;;5055236;28;20048;-22
2023/03/31 06:55:02;;;;;;;21.30;7.72;;;9.60;99.90;;;;;;5054923;28;20045;-22
2023/03/31 06:57:30;;;;;;;18.23;7.05;;;9.90;99.90;;;;;;5055442;28;20425;-23
2023/03/31 06:59:56;;;;;;;17.75;7.10;;;9.80;99.90;;;;;;5055308;28;20040;-23
2023/03/31 07:02:22;;;;;;;19.67;6.85;;;9.90;99.90;;;;;;5053546;28;20132;-23
2023/03/31 07:04:47;;;;;;;16.35;6.35;;;9.30;99.90;;;;;;5054434;28;20045;-23
2023/03/31 07:07:15;;;;;;;15.60;5.90;;;9.80;99.90;;;;;;5053522;28;20070;-23
2023/03/31 07:09:41;;;;;;;13.85;6.75;;;9.50;99.90;;;;;;5053199;28;20056;-23
2023/03/31 07:12:09;;;;;;;14.85;5.43;;;9.40;99.90;;;;;;5054013;28;20056;-24
2023/03/31 07:14:35;;;;;;;14.32;5.68;;;9.20;99.90;;;;;;5053324;28;20150;-24
2023/03/31 07:17:02;;;;;;;15.18;5.57;;;9.30;99.90;;;;;;5054433;28;20047;-25
2023/03/31 07:19:28;;;;;;;13.50;5.57;;;9.60;99.90;;;;;;5054748;28;20041;-25
2023/03/31 07:21:55;;;;;;;11.65;4.80;;;9.70;99.90;;;;;;5055211;28;20372;-24
2023/03/31 07:24:21;;;;;;;11.88;4.82;;;9.80;99.90;;;;;;5054327;28;20051;-24
2023/03/31 07:26:47;;;;;;;10.43;4.30;;;9.70;99.90;;;;;;5054348;28;20092;-24
2023/03/31 07:29:13;;;;;;;14.95;6.22;;;9.70;99.90;;;;;;5053207;28;20077;-25
2023/03/31 07:31:39;;;;;;;14.70;5.82;;;9.40;99.90;;;;;;5053493;28;20041;-25
2023/03/31 07:34:05;;;;;;;15.25;6.05;;;9.80;99.90;;;;;;5054153;28;20052;-25
2023/03/31 07:36:31;;;;;;;17.25;6.57;;;9.50;99.90;;;;;;5054149;28;20041;-25
2023/03/31 07:38:57;;;;;;;13.38;6.05;;;9.30;99.90;;;;;;5054136;28;20124;-24
2023/03/31 07:41:23;;;;;;;13.50;6.82;;;9.40;99.90;;;;;;5054373;28;20499;-25
2023/03/31 07:43:50;;;;;;;14.95;7.43;;;9.80;99.90;;;;;;5053984;28;20059;-25
2023/03/31 07:46:22;;;;;;;17.65;7.68;;;9.90;99.90;;;;;;5054533;28;20057;-25
2023/03/31 07:48:49;;;;;;;15.15;6.85;;;9.70;99.90;;;;;;5054728;28;20044;-25
2023/03/31 07:51:16;;;;;;;16.58;7.32;;;9.40;99.90;;;;;;5054252;28;20063;-25
2023/03/31 07:53:42;;;;;;;22.25;8.18;;;9.60;99.90;;;;;;5053797;28;20041;-26
2023/03/31 07:56:08;;;;;;;18.00;8.15;;;9.90;99.90;;;;;;5036217;28;20056;-26
2023/03/31 07:58:34;;;;;;;14.82;7.75;;;9.60;99.90;;;;;;5052611;28;20045;-27
2023/03/31 08:01:00;;;;;;;14.30;7.13;;;9.90;99.90;;;;;;5019509;28;20048;-27
2023/03/31 08:03:26;;;;;;;16.67;6.80;;;9.90;99.90;;;;;;5053700;28;20055;-28
2023/03/31 08:05:53;;;;;;;20.42;7.15;;;9.50;99.90;;;;;;5053365;28;20045;-28
2023/03/31 08:08:19;;;;;;;16.23;6.82;;;9.60;99.90;;;;;;5052744;28;20439;-27
2023/03/31 08:10:46;;;;;;;19.70;7.03;;;9.40;99.90;;;;;;5052327;28;20562;-27
2023/03/31 08:13:12;;;;;;;15.65;6.38;;;9.50;99.90;;;;;;5053664;28;20088;-27
2023/03/31 08:15:38;;;;;;;15.57;6.70;;;9.80;99.90;;;;;;5053505;28;20091;-28
2023/03/31 08:18:04;;;;;;;15.15;5.78;;;9.60;99.90;;;;;;5053596;28;20148;-27
2023/03/31 08:20:30;;;;;;;18.92;9.95;;;9.50;99.90;;;;;;5052350;28;20080;-28
2023/03/31 08:22:56;;;;;;;16.15;6.78;;;9.80;99.90;;;;;;5053505;28;20052;-29
2023/03/31 08:25:22;;;;;;;10.10;5.25;;;10.00;99.90;;;;;;5053488;28;20049;-28
2023/03/31 08:27:52;;;;;;;12.75;5.25;;;9.70;99.90;;;;;;5053313;28;20052;-28
2023/03/31 08:30:19;;;;;;;14.60;5.82;;;9.80;99.90;;;;;;5053372;28;20075;-28
2023/03/31 08:32:45;;;;;;;13.35;6.45;;;9.70;99.90;;;;;;5054275;28;20067;-28
2023/03/31 08:35:11;;;;;;;19.15;6.85;;;9.60;99.90;;;;;;5053242;28;20048;-28
2023/03/31 08:37:37;;;;;;;13.25;5.55;;;9.60;99.90;;;;;;5053952;28;20045;-28
2023/03/31 08:40:12;;;;;;;12.15;6.10;;;9.80;99.90;;;;;;5053358;28;20044;-29
2023/03/31 08:42:47;;;;;;;14.02;6.05;;;10.00;99.90;;;;;;5056061;28;20041;-28
2023/03/31 08:45:24;;;;;;;15.00;7.03;;;10.20;99.90;;;;;;5057338;28;20088;-28
2023/03/31 08:47:59;;;;;;;15.65;5.75;;;10.20;99.90;;;;;;5057298;28;20430;-29
2023/03/31 08:50:32;;;;;;;14.60;6.40;;;10.30;99.90;;;;;;5058105;28;20049;-29
2023/03/31 08:53:22;;;;;;;13.50;5.63;;;10.30;99.90;;;;;;5057287;28;20045;-29
2023/03/31 08:55:56;;;;;;;13.43;5.72;;;9.90;99.90;;;;;;5057319;28;20045;-28
2023/03/31 08:58:39;;;;;;;12.65;4.90;;;10.20;99.90;;;;;;5056238;28;20197;-30
2023/03/31 09:01:33;;;;;;;9.93;4.80;;;10.40;99.90;;;;;;5057715;28;20143;-29
2023/03/31 09:04:29;;;;;;;13.77;5.80;;;9.90;99.90;;;;;;5057085;28;20040;-29
2023/03/31 09:07:06;;;;;;;18.98;9.70;;;10.00;99.90;;;;;;5057876;28;20044;-29
2023/03/31 09:09:41;;;;;;;14.35;7.03;;;10.40;99.90;;;;;;5057575;28;20110;-29
2023/03/31 09:12:16;;;;;;;14.35;5.82;;;10.50;99.90;;;;;;5057521;28;20061;-29
2023/03/31 09:14:59;;;;;;;15.82;6.00;;;10.10;99.90;;;;;;5039657;28;20085;-29
2023/03/31 09:17:40;;;;;;;13.68;3.53;;;10.30;99.90;;;;;;5056818;28;20049;-29
2023/03/31 09:20:18;;;;;;;12.48;4.35;;;10.00;99.90;;;;;;5056102;28;20110;-29
2023/03/31 09:22:56;;;;;;;12.75;4.20;;;10.50;99.90;;;;;;5057602;28;20063;-29
2023/03/31 09:25:30;;;;;;;13.13;4.90;;;10.10;99.90;;;;;;5055541;28;20045;-28
2023/03/31 09:27:58;;;;;;;12.73;4.13;;;10.10;99.90;;;;;;5057454;28;20053;-28
2023/03/31 09:30:30;;;;;;;12.38;4.57;;;10.50;99.90;;;;;;5056474;28;20080;-29
2023/03/31 09:33:31;;;;;;;11.13;4.15;;;10.50;99.90;;;;;;5056452;28;20083;-29
2023/03/31 09:35:58;;;;;;;12.05;5.20;;;10.50;99.90;;;;;;5056525;28;20162;-29
2023/03/31 09:38:28;;;;;;;12.07;4.50;;;10.00;99.90;;;;;;5057636;28;20407;-29
2023/03/31 09:40:59;;;;;;;13.38;4.40;;;10.50;99.90;;;;;;5074581;28;20454;-29
2023/03/31 09:43:30;;;;;;;8.02;4.75;;;10.70;99.90;;;;;;5076366;28;20151;-29
2023/03/31 09:45:56;;;;;;;14.27;5.00;;;10.30;99.90;;;;;;5076247;28;20041;-29
2023/03/31 09:48:26;;;;;;;16.23;5.28;;;10.80;99.90;;;;;;5075759;28;20422;-29
2023/03/31 09:50:58;;;;;;;13.68;5.20;;;10.50;99.90;;;;;;5076133;28;20048;-30
2023/03/31 09:53:52;;;;;;;14.23;4.37;;;10.50;99.90;;;;;;5075370;28;20047;-29
2023/03/31 09:56:47;;;;;;;9.52;3.67;;;10.80;99.90;;;;;;5074195;28;20057;-30
2023/03/31 09:59:19;;;;;;;9.82;3.90;;;11.10;99.90;;;;;;5075363;28;20062;-29
2023/03/31 10:01:48;;;;;;;9.00;4.35;;;11.10;99.90;;;;;;5075685;28;20506;-29
2023/03/31 10:04:23;;;;;;;13.30;4.05;;;10.70;99.90;;;;;;5075944;28;20045;-30
2023/03/31 10:06:51;;;;;;;12.85;4.18;;;10.90;99.90;;;;;;5059059;28;20059;-29
2023/03/31 10:09:20;;;;;;;11.82;3.47;;;11.20;99.90;;;;;;5074424;28;20394;-30
2023/03/31 10:12:15;;;;;;;8.63;4.05;;;10.90;99.90;;;;;;5074479;28;20052;-30
2023/03/31 10:14:44;;;;;;;8.45;3.65;;;11.10;99.90;;;;;;5058408;28;20059;-30
2023/03/31 10:17:15;;;;;;;7.95;3.50;;;11.20;99.90;;;;;;5074462;28;20048;-30
2023/03/31 10:19:50;;;;;;;5.28;2.80;;;11.50;99.90;;;;;;5057790;28;20482;-30
2023/03/31 10:22:34;;;;;;;8.48;3.35;;;11.50;99.90;;;;;;5074659;28;20505;-30
2023/03/31 10:25:20;;;;;;;7.25;3.47;;;11.50;99.90;;;;;;5058461;28;20490;-28
2023/03/31 10:27:50;;;;;;;4.38;3.25;;;11.50;99.90;;;;;;5076106;28;20052;-30
2023/03/31 10:30:24;;;;;;;8.73;2.20;;;11.00;99.90;;;;;;5075403;28;20040;-31
2023/03/31 10:32:51;;;;;;;5.53;2.20;;;11.00;99.90;;;;;;5074698;28;20059;-30
2023/03/31 10:35:28;;;;;;;6.15;2.47;;;11.20;99.90;;;;;;5074155;28;20048;-30
2023/03/31 10:38:05;;;;;;;7.30;2.70;;;10.80;99.90;;;;;;5075373;28;20055;-30
2023/03/31 10:40:35;;;;;;;5.28;2.75;;;10.80;99.90;;;;;;5074282;28;20036;-30
2023/03/31 10:43:18;;;;;;;5.50;2.60;;;11.10;99.90;;;;;;5076025;28;20110;-29
2023/03/31 10:45:50;;;;;;;7.57;2.80;;;10.90;99.90;;;;;;5075215;28;20053;-29
2023/03/31 10:48:29;;;;;;;7.93;2.95;;;11.20;99.90;;;;;;5075337;28;20397;-29
2023/03/31 10:51:19;;;;;;;6.68;2.75;;;11.50;99.90;;;;;;5075040;28;20055;-29
2023/03/31 10:53:50;;;;;;;11.88;3.55;;;11.20;99.90;;;;;;5075241;28;20125;-29
2023/03/31 10:56:36;;;;;;;9.20;3.70;;;11.10;99.90;;;;;;5075381;28;20055;-29
2023/03/31 10:59:23;;;;;;;10.07;3.38;;;11.40;99.90;;;;;;5073812;28;20059;-29
2023/03/31 11:02:08;;;;;;;10.65;3.55;;;11.10;99.90;;;;;;5074737;28;20083;-29
2023/03/31 11:04:39;;;;;;;8.20;3.50;;;11.60;99.90;;;;;;5075285;28;20048;-29
2023/03/31 11:07:33;;;;;;;9.25;3.50;;;11.50;99.90;;;;;;5075416;28;20048;-29
2023/03/31 11:10:02;;;;;;;17.88;5.03;;;11.30;99.90;;;;;;5074777;28;20064;-29
2023/03/31 11:12:57;;;;;;;10.98;3.90;;;11.70;99.90;;;;;;5074509;28;20048;-30
2023/03/31 11:15:49;;;;;;;11.73;4.03;;;11.50;99.90;;;;;;5074825;28;20130;-29
2023/03/31 11:18:49;;;;;;;8.63;3.10;;;11.90;99.90;;;;;;5074958;28;20053;-29
2023/03/31 11:21:31;;;;;;;8.70;3.83;;;12.10;99.90;;;;;;5075001;28;20390;-30
2023/03/31 11:24:14;;;;;;;14.35;3.00;;;12.40;99.90;;;;;;5075049;28;20044;-31
2023/03/31 11:26:55;;;;;;;;;;;12.10;99.90;;;;;;5073533;28;20048;-31
2023/03/31 11:29:46;;;;;;;6.47;2.38;;;12.20;99.90;;;;;;5074958;28;19927;-31
2023/03/31 11:32:38;;;;;;;8.25;2.80;;;12.30;99.90;;;;;;5074164;28;20060;-30
2023/03/31 11:35:44;;;;;;;9.57;3.33;;;12.40;99.90;;;;;;5074210;28;20131;-30
2023/03/31 11:38:34;;;;;;;7.85;2.90;;;12.50;99.90;;;;;;5072246;28;20471;-30
2023/03/31 11:41:09;;;;;;;12.10;3.28;;;12.50;99.90;;;;;;5073574;28;20052;-33
2023/03/31 11:43:47;;;;;;;10.10;3.47;;;12.80;99.90;;;;;;5074188;28;20499;-31
2023/03/31 11:46:19;;;;;;;10.77;2.97;;;12.80;99.90;;;;;;5074037;28;20080;-32
2023/03/31 11:48:56;;;;;;;9.25;2.35;;;13.00;99.90;;;;;;5074352;28;20131;-31
2023/03/31 11:51:47;;;;;;;7.57;3.85;;;13.00;99.90;;;;;;5073962;28;20040;-32
2023/03/31 11:54:40;;;;;;;9.15;2.13;;;13.10;99.90;;;;;;5074072;28;20130;-32
2023/03/31 11:57:17;;;;;;;7.05;1.95;;;13.10;99.90;;;;;;5072648;28;20417;-33
2023/03/31 11:59:45;;;;;;;6.63;1.85;;;13.00;99.90;;;;;;5073856;28;20052;-33
2023/03/31 12:02:19;;;;;;;9.90;2.33;;;13.10;99.90;;;;;;5073719;28;20470;-33
2023/03/31 12:04:56;;;;;;;8.07;2.78;;;13.00;99.90;;;;;;5073787;28;20088;-33
2023/03/31 12:07:36;;;;;;;6.78;1.73;;;12.90;99.90;;;;;;5074548;28;20095;-33
2023/03/31 12:10:18;;;;;;;7.15;2.40;;;12.80;99.90;;;;;;5073949;28;20403;-35
2023/03/31 12:12:55;;;;;;;9.95;2.53;;;12.80;99.90;;;;;;5073700;28;20048;-33
2023/03/31 12:15:54;;;;;;;6.20;1.75;;;12.40;99.90;;;;;;5074533;28;20071;-35
2023/03/31 12:18:24;;;;;;;4.25;1.60;;;12.20;99.90;;;;;;5072361;28;20501;-33
2023/03/31 12:20:54;;;;;;;5.57;1.80;;;12.00;99.90;;;;;;5073566;28;20119;-32
2023/03/31 12:23:29;;;;;;;9.80;2.25;;;12.00;99.90;;;;;;5073619;28;20052;-32
2023/03/31 12:26:00;;;;;;;5.45;1.77;;;11.90;99.90;;;;;;5074162;28;20048;-32
2023/03/31 12:28:28;;;;;;;10.70;2.28;;;12.00;99.90;;;;;;5073603;28;20055;-33
2023/03/31 12:30:55;;;;;;;7.38;2.15;;;12.00;99.90;;;;;;5071977;28;20487;-32
2023/03/31 12:33:31;;;;;;;11.05;2.90;;;11.70;99.90;;;;;;5073156;28;20499;-32
2023/03/31 12:36:17;;;;;;;12.82;2.47;;;11.80;99.90;;;;;;5073109;28;20045;-29
2023/03/31 12:39:20;;;;;;;7.00;2.53;;;11.60;99.90;;;;;;5072088;28;20490;-28
2023/03/31 12:42:07;;;;;;;14.30;3.00;;;11.30;99.90;;;;;;5073371;28;20102;-27
2023/03/31 12:44:57;;;;;;;7.25;2.58;;;11.00;99.90;;;;;;5072220;28;20052;-25
2023/03/31 12:47:52;;;;;;;9.13;2.05;;;11.20;99.90;;;;;;5056025;28;20067;-26
2023/03/31 12:50:50;;;;;;;9.57;3.03;;;11.10;99.90;;;;;;5071212;28;20102;-26
2023/03/31 12:53:38;;;;;;;9.48;2.25;;;11.20;99.90;;;;;;5072607;28;20088;-27
2023/03/31 12:56:05;;;;;;;11.15;3.25;;;10.70;99.90;;;;;;5055707;28;20048;-27
2023/03/31 12:58:32;;;;;;;11.70;2.90;;;11.30;99.90;;;;;;5055728;28;20478;-27
2023/03/31 13:01:14;;;;;;;12.20;3.60;;;11.20;99.90;;;;;;5073215;28;20406;-27
2023/03/31 13:03:52;;;;;;;13.30;4.40;;;11.50;99.90;;;;;;5073179;28;20395;-29
2023/03/31 13:06:27;;;;;;;13.55;4.25;;;11.80;99.90;;;;;;5073200;28;20047;-28
2023/03/31 13:08:57;;;;;;;17.63;3.80;;;12.10;99.90;;;;;;5073013;28;20091;-28
2023/03/31 13:11:28;;;;;;;15.05;3.35;;;11.90;99.90;;;;;;5072703;28;20063;-28
2023/03/31 13:14:10;;;;;;;9.50;3.05;;;12.00;99.90;;;;;;5073922;28;20048;-29
2023/03/31 13:16:36;;;;;;;14.38;3.50;;;12.20;99.90;;;;;;5073249;28;20048;-28